sensor_id;sensor_type;location;lat;lon;timestamp;pressure;altitude;pressure_sealevel;temperature;humidity
75401;BME280;63974;47.538;18.972;2023-02-01T00:00:13;100532.22;;;2.63;64.92
75401;BME280;63974;47.538;18.972;2023-02-01T00:03:16;100530.97;;;2.69;63.82
75401;BME280;63974;47.538;18.972;2023-02-01T00:06:21;100521.78;;;2.77;63.27
75401;BME280;63974;47.538;18.972;2023-02-01T00:09:24;100497.66;;;2.80;62.29
75401;BME280;63974;47.538;18.972;2023-02-01T00:12:27;100507.69;;;2.94;62.72
75401;BME280;63974;47.538;18.972;2023-02-01T00:15:29;100501.97;;;3.01;62.70
75401;BME280;63974;47.538;18.972;2023-02-01T00:18:32;100491.25;;;2.96;62.57
75401;BME280;63974;47.538;18.972;2023-02-01T00:21:35;100490.44;;;3.07;62.97
75401;BME280;63974;47.538;18.972;2023-02-01T00:24:38;100494.78;;;3.06;62.25
75401;BME280;63974;47.538;18.972;2023-02-01T00:27:41;100495.13;;;3.02;63.76
75401;BME280;63974;47.538;18.972;2023-02-01T00:30:44;100488.34;;;2.90;64.44
75401;BME280;63974;47.538;18.972;2023-02-01T00:33:47;100502.91;;;3.00;64.72
75401;BME280;63974;47.538;18.972;2023-02-01T00:36:50;100508.94;;;2.77;64.83
75401;BME280;63974;47.538;18.972;2023-02-01T00:39:53;100495.19;;;2.78;65.41
75401;BME280;63974;47.538;18.972;2023-02-01T00:42:58;100496.38;;;2.85;65.47
75401;BME280;63974;47.538;18.972;2023-02-01T00:46:01;100492.44;;;2.81;65.63
75401;BME280;63974;47.538;18.972;2023-02-01T00:49:04;100502.78;;;2.80;65.12
75401;BME280;63974;47.538;18.972;2023-02-01T00:52:08;100493.34;;;2.91;64.89
75401;BME280;63974;47.538;18.972;2023-02-01T00:55:11;100488.22;;;2.91;63.71
75401;BME280;63974;47.538;18.972;2023-02-01T00:58:14;100488.72;;;3.07;64.46
75401;BME280;63974;47.538;18.972;2023-02-01T01:01:20;100493.34;;;3.02;63.67
75401;BME280;63974;47.538;18.972;2023-02-01T01:04:23;100491.50;;;3.04;64.04
75401;BME280;63974;47.538;18.972;2023-02-01T01:07:27;100481.13;;;3.06;63.78
75401;BME280;63974;47.538;18.972;2023-02-01T01:10:30;100485.31;;;2.96;64.88
75401;BME280;63974;47.538;18.972;2023-02-01T01:13:34;100482.75;;;2.74;66.13
75401;BME280;63974;47.538;18.972;2023-02-01T01:16:37;100474.94;;;2.86;65.56
75401;BME280;63974;47.538;18.972;2023-02-01T01:19:40;100495.22;;;3.00;64.79
75401;BME280;63974;47.538;18.972;2023-02-01T01:22:43;100502.91;;;2.89;64.08
75401;BME280;63974;47.538;18.972;2023-02-01T01:25:46;100489.88;;;2.92;63.51
75401;BME280;63974;47.538;18.972;2023-02-01T01:28:50;100472.47;;;2.96;63.06
75401;BME280;63974;47.538;18.972;2023-02-01T01:31:53;100472.97;;;3.01;63.05
75401;BME280;63974;47.538;18.972;2023-02-01T01:34:56;100477.75;;;3.05;63.05
75401;BME280;63974;47.538;18.972;2023-02-01T01:38:00;100467.50;;;3.05;61.67
75401;BME280;63974;47.538;18.972;2023-02-01T01:41:03;100461.88;;;3.11;61.75
75401;BME280;63974;47.538;18.972;2023-02-01T01:48:09;100473.66;;;3.14;61.87
75401;BME280;63974;47.538;18.972;2023-02-01T01:51:17;100477.88;;;3.15;61.44
75401;BME280;63974;47.538;18.972;2023-02-01T01:57:38;100469.72;;;2.42;64.23
75401;BME280;63974;47.538;18.972;2023-02-01T02:00:42;100477.81;;;2.60;64.15
75401;BME280;63974;47.538;18.972;2023-02-01T02:03:46;100477.44;;;2.53;63.44
75401;BME280;63974;47.538;18.972;2023-02-01T02:06:59;100480.16;;;2.85;62.29
75401;BME280;63974;47.538;18.972;2023-02-01T02:10:08;100459.66;;;2.85;61.94
75401;BME280;63974;47.538;18.972;2023-02-01T02:13:14;100443.94;;;2.89;62.32
75401;BME280;63974;47.538;18.972;2023-02-01T02:20:10;100448.59;;;2.95;62.08
75401;BME280;63974;47.538;18.972;2023-02-01T02:26:46;100447.56;;;2.76;62.75
75401;BME280;63974;47.538;18.972;2023-02-01T02:37:32;100454.19;;;2.89;61.05
75401;BME280;63974;47.538;18.972;2023-02-01T02:40:47;100445.00;;;2.87;60.76
75401;BME280;63974;47.538;18.972;2023-02-01T02:43:55;100429.63;;;2.76;61.66
75401;BME280;63974;47.538;18.972;2023-02-01T02:47:27;100421.56;;;2.69;61.69
75401;BME280;63974;47.538;18.972;2023-02-01T02:50:38;100427.16;;;2.74;61.96
75401;BME280;63974;47.538;18.972;2023-02-01T02:54:32;100404.78;;;2.76;61.85
75401;BME280;63974;47.538;18.972;2023-02-01T02:57:50;100397.56;;;2.70;61.71
75401;BME280;63974;47.538;18.972;2023-02-01T03:01:12;100402.09;;;2.67;61.73
75401;BME280;63974;47.538;18.972;2023-02-01T03:04:33;100432.38;;;2.84;62.00
75401;BME280;63974;47.538;18.972;2023-02-01T03:07:57;100425.38;;;2.97;60.79
75401;BME280;63974;47.538;18.972;2023-02-01T03:11:11;100427.84;;;2.98;60.31
75401;BME280;63974;47.538;18.972;2023-02-01T03:14:16;100428.19;;;3.05;60.38
75401;BME280;63974;47.538;18.972;2023-02-01T03:17:26;100421.78;;;3.10;60.45
75401;BME280;63974;47.538;18.972;2023-02-01T03:20:31;100409.66;;;3.01;61.12
75401;BME280;63974;47.538;18.972;2023-02-01T03:23:36;100412.22;;;3.01;61.11
75401;BME280;63974;47.538;18.972;2023-02-01T03:26:45;100404.88;;;2.97;61.20
75401;BME280;63974;47.538;18.972;2023-02-01T03:30:20;100406.66;;;2.85;61.55
75401;BME280;63974;47.538;18.972;2023-02-01T03:33:26;100407.81;;;2.81;61.52
75401;BME280;63974;47.538;18.972;2023-02-01T03:36:33;100416.78;;;2.87;61.69
75401;BME280;63974;47.538;18.972;2023-02-01T03:39:59;100431.25;;;2.99;61.32
75401;BME280;63974;47.538;18.972;2023-02-01T03:43:06;100421.44;;;2.93;61.19
75401;BME280;63974;47.538;18.972;2023-02-01T03:46:20;100403.16;;;2.86;60.73
75401;BME280;63974;47.538;18.972;2023-02-01T03:49:34;100410.13;;;2.95;61.14
75401;BME280;63974;47.538;18.972;2023-02-01T03:52:44;100414.09;;;2.99;60.02
75401;BME280;63974;47.538;18.972;2023-02-01T03:55:51;100416.31;;;3.04;60.32
75401;BME280;63974;47.538;18.972;2023-02-01T03:58:55;100426.13;;;2.99;60.35
75401;BME280;63974;47.538;18.972;2023-02-01T04:02:07;100428.69;;;2.99;60.47
75401;BME280;63974;47.538;18.972;2023-02-01T04:05:10;100440.09;;;2.95;60.87
75401;BME280;63974;47.538;18.972;2023-02-01T04:08:21;100439.38;;;2.93;60.92
75401;BME280;63974;47.538;18.972;2023-02-01T04:11:24;100440.91;;;2.95;61.81
75401;BME280;63974;47.538;18.972;2023-02-01T04:14:29;100435.44;;;2.89;62.21
75401;BME280;63974;47.538;18.972;2023-02-01T04:17:32;100441.16;;;2.81;61.48
75401;BME280;63974;47.538;18.972;2023-02-01T04:20:35;100450.81;;;2.89;61.74
75401;BME280;63974;47.538;18.972;2023-02-01T04:23:38;100455.72;;;2.92;62.07
75401;BME280;63974;47.538;18.972;2023-02-01T04:26:41;100464.56;;;2.88;61.75
75401;BME280;63974;47.538;18.972;2023-02-01T04:29:44;100468.44;;;2.93;61.36
75401;BME280;63974;47.538;18.972;2023-02-01T04:32:47;100464.78;;;2.96;61.12
75401;BME280;63974;47.538;18.972;2023-02-01T04:35:50;100472.13;;;3.00;61.59
75401;BME280;63974;47.538;18.972;2023-02-01T04:38:53;100468.28;;;3.06;61.77
75401;BME280;63974;47.538;18.972;2023-02-01T04:41:56;100464.34;;;3.02;61.66
75401;BME280;63974;47.538;18.972;2023-02-01T04:44:58;100469.38;;;2.92;61.57
75401;BME280;63974;47.538;18.972;2023-02-01T04:48:01;100479.47;;;2.94;61.64
75401;BME280;63974;47.538;18.972;2023-02-01T04:51:04;100475.88;;;2.85;61.50
75401;BME280;63974;47.538;18.972;2023-02-01T04:54:08;100474.00;;;2.87;61.36
75401;BME280;63974;47.538;18.972;2023-02-01T04:57:11;100468.28;;;2.84;61.44
75401;BME280;63974;47.538;18.972;2023-02-01T05:00:16;100486.47;;;2.92;61.46
75401;BME280;63974;47.538;18.972;2023-02-01T05:03:19;100485.31;;;2.96;61.29
75401;BME280;63974;47.538;18.972;2023-02-01T05:06:22;100470.16;;;2.93;61.12
75401;BME280;63974;47.538;18.972;2023-02-01T05:09:25;100465.38;;;2.99;61.74
75401;BME280;63974;47.538;18.972;2023-02-01T05:12:28;100470.63;;;2.98;61.00
75401;BME280;63974;47.538;18.972;2023-02-01T05:15:50;100465.97;;;3.03;60.67
75401;BME280;63974;47.538;18.972;2023-02-01T05:18:54;100475.28;;;3.04;60.71
75401;BME280;63974;47.538;18.972;2023-02-01T05:21:57;100477.28;;;3.11;60.74
75401;BME280;63974;47.538;18.972;2023-02-01T05:25:00;100468.28;;;3.17;60.34
75401;BME280;63974;47.538;18.972;2023-02-01T05:28:03;100468.19;;;3.18;60.34
75401;BME280;63974;47.538;18.972;2023-02-01T05:31:09;100463.75;;;3.20;60.67
75401;BME280;63974;47.538;18.972;2023-02-01T05:34:13;100466.19;;;3.22;59.89
75401;BME280;63974;47.538;18.972;2023-02-01T05:37:16;100470.38;;;3.34;60.55
75401;BME280;63974;47.538;18.972;2023-02-01T05:40:19;100471.63;;;3.39;60.71
75401;BME280;63974;47.538;18.972;2023-02-01T05:43:23;100468.28;;;3.39;60.64
75401;BME280;63974;47.538;18.972;2023-02-01T05:46:26;100484.59;;;3.49;60.30
75401;BME280;63974;47.538;18.972;2023-02-01T05:49:29;100489.72;;;3.49;59.97
75401;BME280;63974;47.538;18.972;2023-02-01T05:52:32;100488.09;;;3.48;59.95
75401;BME280;63974;47.538;18.972;2023-02-01T05:55:38;100513.88;;;3.35;59.89
75401;BME280;63974;47.538;18.972;2023-02-01T05:58:41;100514.13;;;3.43;60.37
75401;BME280;63974;47.538;18.972;2023-02-01T06:01:44;100524.84;;;3.26;60.61
75401;BME280;63974;47.538;18.972;2023-02-01T06:04:47;100529.25;;;2.80;62.08
75401;BME280;63974;47.538;18.972;2023-02-01T06:07:50;100514.56;;;2.71;61.26
75401;BME280;63974;47.538;18.972;2023-02-01T06:11:00;100539.97;;;2.85;61.83
75401;BME280;63974;47.538;18.972;2023-02-01T06:14:03;100552.81;;;2.96;60.59
75401;BME280;63974;47.538;18.972;2023-02-01T06:17:06;100544.63;;;2.91;61.02
75401;BME280;63974;47.538;18.972;2023-02-01T06:20:10;100529.16;;;3.04;60.62
75401;BME280;63974;47.538;18.972;2023-02-01T06:23:13;100549.69;;;3.15;60.80
75401;BME280;63974;47.538;18.972;2023-02-01T06:26:16;100546.44;;;3.13;60.81
75401;BME280;63974;47.538;18.972;2023-02-01T06:29:20;100532.78;;;3.12;62.64
75401;BME280;63974;47.538;18.972;2023-02-01T06:32:23;100547.03;;;3.16;61.19
75401;BME280;63974;47.538;18.972;2023-02-01T06:35:26;100525.06;;;3.23;61.14
75401;BME280;63974;47.538;18.972;2023-02-01T06:38:30;100521.22;;;3.18;61.89
75401;BME280;63974;47.538;18.972;2023-02-01T06:41:33;100503.50;;;2.93;62.51
75401;BME280;63974;47.538;18.972;2023-02-01T06:44:37;100523.34;;;3.02;61.64
75401;BME280;63974;47.538;18.972;2023-02-01T06:47:39;100533.59;;;3.13;61.04
75401;BME280;63974;47.538;18.972;2023-02-01T06:50:42;100519.00;;;3.13;60.34
75401;BME280;63974;47.538;18.972;2023-02-01T06:53:45;100540.38;;;3.25;59.78
75401;BME280;63974;47.538;18.972;2023-02-01T06:56:48;100530.91;;;3.25;59.55
75401;BME280;63974;47.538;18.972;2023-02-01T06:59:51;100536.88;;;3.37;59.23
75401;BME280;63974;47.538;18.972;2023-02-01T07:02:54;100530.66;;;3.50;59.47
75401;BME280;63974;47.538;18.972;2023-02-01T07:05:57;100524.84;;;3.48;59.40
75401;BME280;63974;47.538;18.972;2023-02-01T07:09:03;100519.78;;;3.58;59.49
75401;BME280;63974;47.538;18.972;2023-02-01T07:12:06;100512.50;;;3.42;59.81
75401;BME280;63974;47.538;18.972;2023-02-01T07:15:09;100508.75;;;3.46;58.85
75401;BME280;63974;47.538;18.972;2023-02-01T07:18:12;100543.28;;;3.53;58.73
75401;BME280;63974;47.538;18.972;2023-02-01T07:21:17;100558.69;;;3.53;57.56
75401;BME280;63974;47.538;18.972;2023-02-01T07:24:20;100552.97;;;3.61;58.15
75401;BME280;63974;47.538;18.972;2023-02-01T07:27:22;100551.06;;;3.74;57.92
75401;BME280;63974;47.538;18.972;2023-02-01T07:30:27;100570.06;;;3.82;58.83
75401;BME280;63974;47.538;18.972;2023-02-01T07:33:30;100568.53;;;3.91;58.76
75401;BME280;63974;47.538;18.972;2023-02-01T07:36:33;100567.59;;;3.92;57.19
75401;BME280;63974;47.538;18.972;2023-02-01T07:39:36;100545.75;;;3.97;57.39
75401;BME280;63974;47.538;18.972;2023-02-01T07:42:39;100554.63;;;4.04;57.13
75401;BME280;63974;47.538;18.972;2023-02-01T07:45:42;100543.88;;;3.99;56.73
75401;BME280;63974;47.538;18.972;2023-02-01T07:48:47;100564.53;;;4.09;55.58
75401;BME280;63974;47.538;18.972;2023-02-01T07:51:50;100569.47;;;4.32;55.96
75401;BME280;63974;47.538;18.972;2023-02-01T07:54:53;100571.06;;;4.44;53.76
75401;BME280;63974;47.538;18.972;2023-02-01T07:57:59;100563.19;;;4.56;54.38
75401;BME280;63974;47.538;18.972;2023-02-01T08:01:02;100581.72;;;4.60;53.30
75401;BME280;63974;47.538;18.972;2023-02-01T08:04:23;100565.88;;;4.55;53.64
75401;BME280;63974;47.538;18.972;2023-02-01T08:07:26;100576.63;;;4.49;53.82
75401;BME280;63974;47.538;18.972;2023-02-01T08:10:29;100566.28;;;4.39;54.22
75401;BME280;63974;47.538;18.972;2023-02-01T08:13:33;100566.16;;;4.41;54.44
75401;BME280;63974;47.538;18.972;2023-02-01T08:16:37;100549.56;;;4.45;54.60
75401;BME280;63974;47.538;18.972;2023-02-01T08:19:41;100551.88;;;4.48;55.05
75401;BME280;63974;47.538;18.972;2023-02-01T08:22:44;100550.69;;;4.52;54.43
75401;BME280;63974;47.538;18.972;2023-02-01T08:25:47;100549.88;;;4.51;54.04
75401;BME280;63974;47.538;18.972;2023-02-01T08:28:54;100552.03;;;4.67;53.87
75401;BME280;63974;47.538;18.972;2023-02-01T08:31:58;100548.06;;;4.63;54.80
75401;BME280;63974;47.538;18.972;2023-02-01T08:35:02;100549.00;;;4.62;54.90
75401;BME280;63974;47.538;18.972;2023-02-01T08:38:05;100542.94;;;4.63;54.49
75401;BME280;63974;47.538;18.972;2023-02-01T08:41:19;100549.69;;;4.84;54.31
75401;BME280;63974;47.538;18.972;2023-02-01T08:44:23;100537.69;;;5.15;53.88
75401;BME280;63974;47.538;18.972;2023-02-01T08:47:26;100543.50;;;5.17;54.13
75401;BME280;63974;47.538;18.972;2023-02-01T08:50:28;100537.03;;;5.22;56.24
75401;BME280;63974;47.538;18.972;2023-02-01T08:53:31;100539.88;;;5.19;53.15
75401;BME280;63974;47.538;18.972;2023-02-01T08:56:34;100557.81;;;5.10;53.94
75401;BME280;63974;47.538;18.972;2023-02-01T08:59:37;100569.31;;;5.06;54.65
75401;BME280;63974;47.538;18.972;2023-02-01T09:02:41;100557.13;;;5.08;54.72
75401;BME280;63974;47.538;18.972;2023-02-01T09:05:44;100544.06;;;5.20;55.61
75401;BME280;63974;47.538;18.972;2023-02-01T09:08:51;100559.38;;;5.22;55.99
75401;BME280;63974;47.538;18.972;2023-02-01T09:11:54;100552.22;;;5.25;55.71
75401;BME280;63974;47.538;18.972;2023-02-01T09:14:58;100552.22;;;5.25;55.65
75401;BME280;63974;47.538;18.972;2023-02-01T09:18:02;100559.56;;;5.30;55.98
75401;BME280;63974;47.538;18.972;2023-02-01T09:21:06;100564.44;;;5.33;56.18
75401;BME280;63974;47.538;18.972;2023-02-01T09:24:11;100563.50;;;5.34;55.56
75401;BME280;63974;47.538;18.972;2023-02-01T09:27:15;100552.44;;;5.52;54.31
75401;BME280;63974;47.538;18.972;2023-02-01T09:30:18;100553.88;;;5.66;53.28
75401;BME280;63974;47.538;18.972;2023-02-01T09:33:21;100547.97;;;5.84;53.32
75401;BME280;63974;47.538;18.972;2023-02-01T09:36:26;100553.13;;;5.84;52.95
75401;BME280;63974;47.538;18.972;2023-02-01T09:39:32;100549.34;;;5.88;53.16
75401;BME280;63974;47.538;18.972;2023-02-01T09:45:59;100543.81;;;6.12;52.89
75401;BME280;63974;47.538;18.972;2023-02-01T09:49:12;100549.25;;;6.18;52.63
75401;BME280;63974;47.538;18.972;2023-02-01T09:52:19;100540.69;;;6.18;52.82
75401;BME280;63974;47.538;18.972;2023-02-01T09:55:38;100544.91;;;6.38;52.91
75401;BME280;63974;47.538;18.972;2023-02-01T09:58:46;100532.41;;;6.61;52.24
75401;BME280;63974;47.538;18.972;2023-02-01T10:01:50;100530.88;;;6.87;51.50
75401;BME280;63974;47.538;18.972;2023-02-01T10:04:55;100523.09;;;6.97;51.71
75401;BME280;63974;47.538;18.972;2023-02-01T10:08:36;100513.25;;;7.19;50.42
75401;BME280;63974;47.538;18.972;2023-02-01T10:18:45;100495.00;;;7.30;50.29
75401;BME280;63974;47.538;18.972;2023-02-01T10:21:59;100488.19;;;7.56;50.54
75401;BME280;63974;47.538;18.972;2023-02-01T10:25:23;100483.34;;;7.88;47.94
75401;BME280;63974;47.538;18.972;2023-02-01T10:28:33;100470.50;;;8.14;47.29
75401;BME280;63974;47.538;18.972;2023-02-01T10:31:37;100466.97;;;7.97;47.23
75401;BME280;63974;47.538;18.972;2023-02-01T10:34:42;100481.94;;;7.76;47.57
75401;BME280;63974;47.538;18.972;2023-02-01T10:37:47;100458.91;;;7.83;48.66
75401;BME280;63974;47.538;18.972;2023-02-01T10:40:52;100451.59;;;8.31;48.58
75401;BME280;63974;47.538;18.972;2023-02-01T10:43:57;100464.44;;;8.58;47.84
75401;BME280;63974;47.538;18.972;2023-02-01T10:47:01;100446.97;;;8.60;47.85
75401;BME280;63974;47.538;18.972;2023-02-01T10:50:17;100450.94;;;8.72;46.08
75401;BME280;63974;47.538;18.972;2023-02-01T10:53:25;100448.72;;;8.59;45.42
75401;BME280;63974;47.538;18.972;2023-02-01T10:56:30;100435.91;;;8.50;46.30
75401;BME280;63974;47.538;18.972;2023-02-01T10:59:33;100438.06;;;8.87;45.96
75401;BME280;63974;47.538;18.972;2023-02-01T11:02:39;100426.75;;;8.63;46.35
75401;BME280;63974;47.538;18.972;2023-02-01T11:05:48;100414.94;;;8.61;46.52
75401;BME280;63974;47.538;18.972;2023-02-01T11:08:53;100413.00;;;8.63;44.69
75401;BME280;63974;47.538;18.972;2023-02-01T11:11:59;100399.94;;;8.64;45.59
75401;BME280;63974;47.538;18.972;2023-02-01T11:18:18;100394.56;;;8.66;45.82
75401;BME280;63974;47.538;18.972;2023-02-01T11:21:21;100381.91;;;8.55;46.32
75401;BME280;63974;47.538;18.972;2023-02-01T11:24:29;100379.22;;;8.64;44.63
75401;BME280;63974;47.538;18.972;2023-02-01T11:27:33;100376.44;;;8.91;43.20
75401;BME280;63974;47.538;18.972;2023-02-01T11:30:45;100363.84;;;9.12;43.49
75401;BME280;63974;47.538;18.972;2023-02-01T11:33:53;100359.25;;;9.47;42.72
75401;BME280;63974;47.538;18.972;2023-02-01T11:37:00;100355.69;;;9.48;42.73
75401;BME280;63974;47.538;18.972;2023-02-01T11:43:28;100355.53;;;8.92;43.59
75401;BME280;63974;47.538;18.972;2023-02-01T11:46:33;100352.28;;;8.82;41.84
75401;BME280;63974;47.538;18.972;2023-02-01T11:49:36;100337.38;;;8.77;40.78
75401;BME280;63974;47.538;18.972;2023-02-01T12:13:21;100312.22;;;8.28;46.86
75401;BME280;63974;47.538;18.972;2023-02-01T12:16:35;100300.84;;;8.21;46.07
75401;BME280;63974;47.538;18.972;2023-02-01T12:23:04;100285.78;;;8.42;45.50
75401;BME280;63974;47.538;18.972;2023-02-01T12:30:10;100289.25;;;8.25;45.85
75401;BME280;63974;47.538;18.972;2023-02-01T12:34:20;100292.69;;;7.82;45.89
75401;BME280;63974;47.538;18.972;2023-02-01T12:47:20;100291.09;;;7.46;47.86
75401;BME280;63974;47.538;18.972;2023-02-01T12:50:47;100271.72;;;7.42;49.38
75401;BME280;63974;47.538;18.972;2023-02-01T12:57:27;100257.59;;;7.54;48.75
75401;BME280;63974;47.538;18.972;2023-02-01T13:00:38;100260.25;;;7.45;50.18
75401;BME280;63974;47.538;18.972;2023-02-01T13:03:52;100264.97;;;7.32;50.55
75401;BME280;63974;47.538;18.972;2023-02-01T13:10:23;100251.97;;;7.41;50.23
75401;BME280;63974;47.538;18.972;2023-02-01T13:16:57;100247.88;;;7.13;51.03
75401;BME280;63974;47.538;18.972;2023-02-01T13:20:16;100248.69;;;7.14;50.11
75401;BME280;63974;47.538;18.972;2023-02-01T13:23:39;100252.16;;;7.05;50.62
75401;BME280;63974;47.538;18.972;2023-02-01T13:26:43;100240.06;;;6.88;51.09
75401;BME280;63974;47.538;18.972;2023-02-01T13:29:57;100242.78;;;6.86;51.85
75401;BME280;63974;47.538;18.972;2023-02-01T13:43:44;100268.25;;;6.72;51.63
75401;BME280;63974;47.538;18.972;2023-02-01T13:46:50;100260.84;;;6.86;49.72
75401;BME280;63974;47.538;18.972;2023-02-01T13:49:58;100256.13;;;6.99;49.83
75401;BME280;63974;47.538;18.972;2023-02-01T13:56:17;100242.19;;;7.10;52.57
75401;BME280;63974;47.538;18.972;2023-02-01T14:12:45;100214.50;;;6.67;54.23
75401;BME280;63974;47.538;18.972;2023-02-01T14:19:23;100201.06;;;6.91;53.94
75401;BME280;63974;47.538;18.972;2023-02-01T14:22:33;100202.75;;;6.82;54.49
75401;BME280;63974;47.538;18.972;2023-02-01T14:25:37;100204.50;;;6.82;54.14
75401;BME280;63974;47.538;18.972;2023-02-01T14:28:43;100203.13;;;6.87;53.98
75401;BME280;63974;47.538;18.972;2023-02-01T14:35:06;100176.22;;;6.90;53.41
75401;BME280;63974;47.538;18.972;2023-02-01T14:38:10;100171.31;;;7.04;53.30
75401;BME280;63974;47.538;18.972;2023-02-01T14:44:31;100181.28;;;7.17;53.34
75401;BME280;63974;47.538;18.972;2023-02-01T14:47:34;100190.66;;;7.00;52.96
75401;BME280;63974;47.538;18.972;2023-02-01T14:50:44;100217.19;;;6.75;53.68
75401;BME280;63974;47.538;18.972;2023-02-01T14:53:49;100239.13;;;6.62;53.46
75401;BME280;63974;47.538;18.972;2023-02-01T14:56:54;100285.19;;;6.57;53.55
75401;BME280;63974;47.538;18.972;2023-02-01T15:00:07;100366.72;;;6.31;56.27
75401;BME280;63974;47.538;18.972;2023-02-01T15:03:22;100396.63;;;5.77;58.60
75401;BME280;63974;47.538;18.972;2023-02-01T15:06:28;100406.53;;;6.10;54.90
75401;BME280;63974;47.538;18.972;2023-02-01T15:09:37;100406.94;;;6.15;53.54
75401;BME280;63974;47.538;18.972;2023-02-01T15:12:41;100409.13;;;6.10;54.07
75401;BME280;63974;47.538;18.972;2023-02-01T15:16:09;100407.91;;;6.04;53.76
75401;BME280;63974;47.538;18.972;2023-02-01T15:19:13;100416.28;;;5.87;54.11
75401;BME280;63974;47.538;18.972;2023-02-01T15:22:18;100423.72;;;5.71;55.96
75401;BME280;63974;47.538;18.972;2023-02-01T15:25:27;100422.06;;;5.51;57.22
75401;BME280;63974;47.538;18.972;2023-02-01T15:28:30;100441.59;;;5.54;58.03
75401;BME280;63974;47.538;18.972;2023-02-01T15:31:51;100435.22;;;5.48;58.91
75401;BME280;63974;47.538;18.972;2023-02-01T15:34:55;100446.06;;;5.42;59.45
75401;BME280;63974;47.538;18.972;2023-02-01T15:41:34;100454.66;;;5.22;62.12
75401;BME280;63974;47.538;18.972;2023-02-01T15:44:44;100454.66;;;5.13;62.79
75401;BME280;63974;47.538;18.972;2023-02-01T15:47:50;100461.84;;;5.19;63.04
75401;BME280;63974;47.538;18.972;2023-02-01T15:50:54;100469.06;;;5.34;62.70
75401;BME280;63974;47.538;18.972;2023-02-01T15:54:02;100474.31;;;5.23;63.33
75401;BME280;63974;47.538;18.972;2023-02-01T15:57:07;100465.91;;;5.21;64.17
75401;BME280;63974;47.538;18.972;2023-02-01T16:00:42;100475.41;;;4.91;66.05
75401;BME280;63974;47.538;18.972;2023-02-01T16:03:46;100472.38;;;4.86;66.34
75401;BME280;63974;47.538;18.972;2023-02-01T16:06:53;100466.75;;;4.92;67.31
75401;BME280;63974;47.538;18.972;2023-02-01T16:09:59;100449.28;;;4.95;67.51
75401;BME280;63974;47.538;18.972;2023-02-01T16:13:09;100468.16;;;5.05;68.09
75401;BME280;63974;47.538;18.972;2023-02-01T16:16:12;100459.97;;;4.91;68.69
75401;BME280;63974;47.538;18.972;2023-02-01T16:19:16;100452.66;;;4.96;68.95
75401;BME280;63974;47.538;18.972;2023-02-01T16:22:19;100457.88;;;5.05;67.57
75401;BME280;63974;47.538;18.972;2023-02-01T16:25:22;100463.41;;;5.01;67.74
75401;BME280;63974;47.538;18.972;2023-02-01T16:28:25;100435.25;;;5.09;67.87
75401;BME280;63974;47.538;18.972;2023-02-01T16:31:30;100457.16;;;5.03;68.64
75401;BME280;63974;47.538;18.972;2023-02-01T16:34:34;100418.94;;;4.89;70.17
75401;BME280;63974;47.538;18.972;2023-02-01T16:37:38;100415.84;;;4.95;69.93
75401;BME280;63974;47.538;18.972;2023-02-01T16:40:42;100408.38;;;4.92;69.55
75401;BME280;63974;47.538;18.972;2023-02-01T16:43:49;100423.81;;;4.92;70.21
75401;BME280;63974;47.538;18.972;2023-02-01T16:46:52;100412.53;;;4.84;69.91
75401;BME280;63974;47.538;18.972;2023-02-01T16:49:55;100404.13;;;4.72;70.09
75401;BME280;63974;47.538;18.972;2023-02-01T16:52:58;100410.69;;;4.65;70.72
75401;BME280;63974;47.538;18.972;2023-02-01T16:56:01;100418.09;;;4.59;71.23
75401;BME280;63974;47.538;18.972;2023-02-01T16:59:08;100404.47;;;4.58;70.42
75401;BME280;63974;47.538;18.972;2023-02-01T17:02:16;100400.50;;;4.54;70.09
75401;BME280;63974;47.538;18.972;2023-02-01T17:05:19;100408.09;;;4.56;69.81
75401;BME280;63974;47.538;18.972;2023-02-01T17:08:29;100431.22;;;4.56;70.42
75401;BME280;63974;47.538;18.972;2023-02-01T17:11:37;100436.06;;;4.49;69.34
75401;BME280;63974;47.538;18.972;2023-02-01T17:14:41;100431.72;;;4.50;69.75
75401;BME280;63974;47.538;18.972;2023-02-01T17:17:44;100441.22;;;4.49;69.81
75401;BME280;63974;47.538;18.972;2023-02-01T17:20:47;100442.47;;;4.55;69.35
75401;BME280;63974;47.538;18.972;2023-02-01T17:23:51;100430.72;;;4.41;69.57
75401;BME280;63974;47.538;18.972;2023-02-01T17:26:55;100431.56;;;4.42;69.46
75401;BME280;63974;47.538;18.972;2023-02-01T17:29:58;100434.94;;;4.42;69.56
75401;BME280;63974;47.538;18.972;2023-02-01T17:33:02;100440.00;;;4.53;69.03
75401;BME280;63974;47.538;18.972;2023-02-01T17:36:23;100443.09;;;4.47;69.12
75401;BME280;63974;47.538;18.972;2023-02-01T17:39:26;100442.56;;;4.53;68.95
75401;BME280;63974;47.538;18.972;2023-02-01T17:42:48;100447.50;;;4.56;69.16
75401;BME280;63974;47.538;18.972;2023-02-01T17:45:55;100437.19;;;4.56;69.07
75401;BME280;63974;47.538;18.972;2023-02-01T17:49:00;100426.53;;;4.40;69.65
75401;BME280;63974;47.538;18.972;2023-02-01T17:52:05;100422.41;;;4.28;70.40
75401;BME280;63974;47.538;18.972;2023-02-01T17:55:26;100425.22;;;4.05;71.36
75401;BME280;63974;47.538;18.972;2023-02-01T17:58:29;100409.75;;;3.96;71.69
75401;BME280;63974;47.538;18.972;2023-02-01T18:01:35;100409.03;;;3.94;71.42
75401;BME280;63974;47.538;18.972;2023-02-01T18:04:38;100419.44;;;3.92;71.39
75401;BME280;63974;47.538;18.972;2023-02-01T18:07:40;100415.38;;;3.90;71.46
75401;BME280;63974;47.538;18.972;2023-02-01T18:10:43;100411.78;;;3.81;71.58
75401;BME280;63974;47.538;18.972;2023-02-01T18:13:47;100421.38;;;3.79;71.33
75401;BME280;63974;47.538;18.972;2023-02-01T18:16:50;100416.25;;;3.79;71.50
75401;BME280;63974;47.538;18.972;2023-02-01T18:19:53;100409.47;;;3.78;71.32
75401;BME280;63974;47.538;18.972;2023-02-01T18:22:56;100407.28;;;3.74;70.95